Terminal Aerodrome Forecast
Issued by NWS

Home | Current Version | Previous Version | Text Only | Print | Product List | Glossary On
Versions: 1 2 3 4 5 6 7 8 9 10 11 12 13 14 15 16 17
000
FTAK31 PAJN 170500 RRA
TAFAKT
TAF
PAKT 170542Z 1706/1806 17007KT 6SM -RA BR FEW015 BKN030 OVC040
      WS020/13035KT
      TEMPO 1706/1709 15010G20KT 5SM -RA BR FEW015 OVC025
     FM170900 14020G30KT 5SM -RA BR BKN015 OVC030 WS020/14045KT
     FM171600 14010G20KT 5SM -RA BR BKN015 OVC030
     FM180300 14009KT 5SM -RA BR BKN015 OVC030
      AMD LTD TO CLD VIS AND WIND 1706/1715=

USA.gov is the U.S. government's official web portal to all federal, state and local government web resources and services.